Brownwood, TX

9:46 AM CDT on May 25, 2015 (GMT -0500)
Coleman Municipal | | Change Station
CLOSE
Current Station
Airport
Location: Coleman,
Elevation: 1696 ft
Nearby Weather Stations
Active Advisory: Severe Thunderstorm Watch

Elev 1696 ft 31.84 °N, 99.41 °W | Updated 11 minutes ago

Overcast
Overcast
71 °F
Feels Like 71 °F
N
12
Wind Variable Wind from SE

Today
High -- | Low -- °F
--% Chance of Precip.
Yesterday
High -- | Low -- °F
Precip. -- in
6:33 AM 8:32 PM
Waxing Crescent, 49% visible
Pressure 29.85 in
Visibility 10.0 miles
Clouds Scattered Clouds 5000 ft
Scattered Clouds 7000 ft
Mostly Cloudy 11000 ft
Dew Point 70 °F
Humidity 95%
Rainfall 0.01 in
Snow Depth Not available.
UV 2 out of 12
Pollen 2.40 out of 12
Air Quality Not available.
Flu Activity Sporadic
METAR KCOM 251435Z AUTO 13010KT 10SM SCT050 SCT070 BKN110 22/21 A2985 RMK AO2 LTG DSNT S AND W T02180209

More Conditions Fewer Conditions

Pressure 29.85 in
Visibility 10.0 miles
Clouds Scattered Clouds 5000 ft
Scattered Clouds 7000 ft
Mostly Cloudy 11000 ft
Dew Point 70 °F
Humidity 95%
Rainfall 0.01 in
Snow Depth Not available.
UV 2 out of 12
Pollen 2.40 out of 12
Air Quality Not available.
Flu Activity Sporadic
METAR KCOM 251435Z AUTO 13010KT 10SM SCT050 SCT070 BKN110 22/21 A2985 RMK AO2 LTG DSNT S AND W T02180209

More Conditions Fewer Conditions

10-Day Weather Forecast

Almanac

Astronomy

May. 25, 2015 Rise Set
Actual Time
Civil Twilight
Nautical Twilight
Astronomical Twilight
Moon
Length of Visible Light
Length of Day
Tomorrow will be .
, % of the Moon is Illuminated

Today's Extremes

State Highs State Lows

Community

WunderPhotos

Upload Photos

1,824,024 photos uploaded!

WunderBlogs® & News

Nearby

Air Quality

  Air Quality AQ Index Pollutant
Not available.

Snow Depth

Station Depth Elevation

Earthquake Activity

City Distance Mag. Time & Date
Minimum magnitude displayed is 2.5.

Coastal Water Temperatures

Place Temperature

Stations

Nearby Weather Stations

Station Location Temp. Windchill Dew Point Humidity Wind Precip. Elev Updated Type
                   
Severe Thunderstorm Watch
Statement as of 9:43 AM CDT on May 25, 2015

Severe Thunderstorm Watch 209 remains in effect until 100 PM CDT
for the following locations


TX
. Texas counties included are

Andrews Borden Brown
Callahan Coke Coleman
Concho Crockett Crosby
Dawson Dickens Fisher
Gaines Garza Haskell
Howard Irion Jones
Kent Kimble King
Lubbock Lynn McCulloch
Martin Mason Menard
Mitchell Nolan Runnels
San Saba Schleicher Scurry
Shackelford Sterling Stonewall
Sutton Taylor Throckmorton
Tom Green